sensor_id;sensor_type;location;lat;lon;timestamp;P1;durP1;ratioP1;P2;durP2;ratioP2
24813;SDS011;12904;50.088;11.414;2023-04-15T00:00:37;5.35;;;4.85;;
24813;SDS011;12904;50.088;11.414;2023-04-15T00:03:03;6.25;;;5.65;;
24813;SDS011;12904;50.088;11.414;2023-04-15T00:05:31;5.07;;;4.68;;
24813;SDS011;12904;50.088;11.414;2023-04-15T00:07:57;5.82;;;5.30;;
24813;SDS011;12904;50.088;11.414;2023-04-15T00:10:23;6.25;;;5.75;;
24813;SDS011;12904;50.088;11.414;2023-04-15T00:12:49;6.90;;;6.18;;
24813;SDS011;12904;50.088;11.414;2023-04-15T00:15:16;6.13;;;5.63;;
24813;SDS011;12904;50.088;11.414;2023-04-15T00:17:42;6.38;;;5.85;;
24813;SDS011;12904;50.088;11.414;2023-04-15T00:20:08;7.28;;;6.45;;
24813;SDS011;12904;50.088;11.414;2023-04-15T00:22:34;10.50;;;7.00;;
24813;SDS011;12904;50.088;11.414;2023-04-15T00:25:00;6.57;;;5.72;;
24813;SDS011;12904;50.088;11.414;2023-04-15T00:27:26;7.38;;;6.68;;
24813;SDS011;12904;50.088;11.414;2023-04-15T00:29:52;6.38;;;5.88;;
24813;SDS011;12904;50.088;11.414;2023-04-15T00:32:17;10.63;;;6.50;;
24813;SDS011;12904;50.088;11.414;2023-04-15T00:34:44;6.85;;;6.18;;
24813;SDS011;12904;50.088;11.414;2023-04-15T00:37:10;6.97;;;6.20;;
24813;SDS011;12904;50.088;11.414;2023-04-15T00:39:36;8.13;;;6.25;;
24813;SDS011;12904;50.088;11.414;2023-04-15T00:42:03;8.40;;;7.60;;
24813;SDS011;12904;50.088;11.414;2023-04-15T00:44:29;6.93;;;6.32;;
24813;SDS011;12904;50.088;11.414;2023-04-15T00:46:54;6.90;;;6.22;;
24813;SDS011;12904;50.088;11.414;2023-04-15T00:49:21;7.35;;;6.70;;
24813;SDS011;12904;50.088;11.414;2023-04-15T00:51:47;7.38;;;6.78;;
24813;SDS011;12904;50.088;11.414;2023-04-15T00:54:13;8.00;;;7.30;;
24813;SDS011;12904;50.088;11.414;2023-04-15T00:56:40;7.68;;;6.82;;
24813;SDS011;12904;50.088;11.414;2023-04-15T00:59:06;8.57;;;6.43;;
24813;SDS011;12904;50.088;11.414;2023-04-15T01:01:33;7.07;;;6.47;;
24813;SDS011;12904;50.088;11.414;2023-04-15T01:04:00;8.20;;;6.72;;
24813;SDS011;12904;50.088;11.414;2023-04-15T01:06:27;7.75;;;6.95;;
24813;SDS011;12904;50.088;11.414;2023-04-15T01:08:53;7.43;;;6.82;;
24813;SDS011;12904;50.088;11.414;2023-04-15T01:11:19;8.10;;;7.38;;
24813;SDS011;12904;50.088;11.414;2023-04-15T01:13:46;8.95;;;7.00;;
24813;SDS011;12904;50.088;11.414;2023-04-15T01:16:12;9.77;;;7.85;;
24813;SDS011;12904;50.088;11.414;2023-04-15T01:18:38;8.05;;;7.20;;
24813;SDS011;12904;50.088;11.414;2023-04-15T01:21:04;8.38;;;7.68;;
24813;SDS011;12904;50.088;11.414;2023-04-15T01:23:31;9.10;;;8.18;;
24813;SDS011;12904;50.088;11.414;2023-04-15T01:26:01;12.43;;;8.35;;
24813;SDS011;12904;50.088;11.414;2023-04-15T01:28:27;8.02;;;7.22;;
24813;SDS011;12904;50.088;11.414;2023-04-15T01:31:06;8.75;;;7.95;;
24813;SDS011;12904;50.088;11.414;2023-04-15T01:33:39;10.70;;;8.63;;
24813;SDS011;12904;50.088;11.414;2023-04-15T01:36:06;7.68;;;7.07;;
24813;SDS011;12904;50.088;11.414;2023-04-15T01:38:34;7.95;;;7.25;;
24813;SDS011;12904;50.088;11.414;2023-04-15T01:41:00;8.30;;;7.50;;
24813;SDS011;12904;50.088;11.414;2023-04-15T01:43:28;7.47;;;6.75;;
24813;SDS011;12904;50.088;11.414;2023-04-15T01:45:53;7.35;;;6.75;;
24813;SDS011;12904;50.088;11.414;2023-04-15T01:48:20;7.93;;;7.13;;
24813;SDS011;12904;50.088;11.414;2023-04-15T01:50:47;7.75;;;7.13;;
24813;SDS011;12904;50.088;11.414;2023-04-15T01:53:13;8.10;;;6.90;;
24813;SDS011;12904;50.088;11.414;2023-04-15T01:55:39;7.60;;;6.80;;
24813;SDS011;12904;50.088;11.414;2023-04-15T01:58:05;7.28;;;6.53;;
24813;SDS011;12904;50.088;11.414;2023-04-15T02:00:31;9.75;;;8.02;;
24813;SDS011;12904;50.088;11.414;2023-04-15T02:02:57;7.97;;;7.30;;
24813;SDS011;12904;50.088;11.414;2023-04-15T02:05:23;7.05;;;6.32;;
24813;SDS011;12904;50.088;11.414;2023-04-15T02:07:49;10.70;;;7.30;;
24813;SDS011;12904;50.088;11.414;2023-04-15T02:10:15;7.78;;;7.07;;
24813;SDS011;12904;50.088;11.414;2023-04-15T02:12:41;7.68;;;7.05;;
24813;SDS011;12904;50.088;11.414;2023-04-15T02:15:07;7.25;;;6.50;;
24813;SDS011;12904;50.088;11.414;2023-04-15T02:17:34;7.53;;;6.65;;
24813;SDS011;12904;50.088;11.414;2023-04-15T02:20:00;7.10;;;6.45;;
24813;SDS011;12904;50.088;11.414;2023-04-15T02:22:26;7.18;;;6.47;;
24813;SDS011;12904;50.088;11.414;2023-04-15T02:24:53;8.00;;;7.25;;
24813;SDS011;12904;50.088;11.414;2023-04-15T02:27:18;6.95;;;6.00;;
24813;SDS011;12904;50.088;11.414;2023-04-15T02:29:44;6.97;;;6.38;;
24813;SDS011;12904;50.088;11.414;2023-04-15T02:32:13;7.28;;;6.63;;
24813;SDS011;12904;50.088;11.414;2023-04-15T02:34:39;7.28;;;6.68;;
24813;SDS011;12904;50.088;11.414;2023-04-15T02:37:07;6.50;;;5.90;;
24813;SDS011;12904;50.088;11.414;2023-04-15T02:39:36;7.78;;;6.35;;
24813;SDS011;12904;50.088;11.414;2023-04-15T02:42:02;8.75;;;6.90;;
24813;SDS011;12904;50.088;11.414;2023-04-15T02:44:29;6.90;;;6.40;;
24813;SDS011;12904;50.088;11.414;2023-04-15T02:46:56;8.35;;;6.60;;
24813;SDS011;12904;50.088;11.414;2023-04-15T02:49:23;8.43;;;6.38;;
24813;SDS011;12904;50.088;11.414;2023-04-15T02:51:49;10.32;;;7.00;;
24813;SDS011;12904;50.088;11.414;2023-04-15T02:54:18;7.70;;;6.45;;
24813;SDS011;12904;50.088;11.414;2023-04-15T02:56:46;6.80;;;6.20;;
24813;SDS011;12904;50.088;11.414;2023-04-15T02:59:12;10.20;;;7.65;;
24813;SDS011;12904;50.088;11.414;2023-04-15T03:01:38;8.27;;;7.45;;
24813;SDS011;12904;50.088;11.414;2023-04-15T03:04:04;7.80;;;7.00;;
24813;SDS011;12904;50.088;11.414;2023-04-15T03:06:30;7.45;;;6.65;;
24813;SDS011;12904;50.088;11.414;2023-04-15T03:08:55;7.38;;;6.40;;
24813;SDS011;12904;50.088;11.414;2023-04-15T03:11:21;8.73;;;6.47;;
24813;SDS011;12904;50.088;11.414;2023-04-15T03:13:47;8.73;;;7.45;;
24813;SDS011;12904;50.088;11.414;2023-04-15T03:16:13;7.90;;;7.20;;
24813;SDS011;12904;50.088;11.414;2023-04-15T03:18:38;8.18;;;7.43;;
24813;SDS011;12904;50.088;11.414;2023-04-15T03:21:04;8.30;;;7.45;;
24813;SDS011;12904;50.088;11.414;2023-04-15T03:23:30;9.00;;;7.38;;
24813;SDS011;12904;50.088;11.414;2023-04-15T03:25:56;8.13;;;7.32;;
24813;SDS011;12904;50.088;11.414;2023-04-15T03:28:23;8.57;;;7.57;;
24813;SDS011;12904;50.088;11.414;2023-04-15T03:30:49;9.82;;;8.65;;
24813;SDS011;12904;50.088;11.414;2023-04-15T03:33:15;9.63;;;8.65;;
24813;SDS011;12904;50.088;11.414;2023-04-15T03:35:41;8.90;;;8.00;;
24813;SDS011;12904;50.088;11.414;2023-04-15T03:38:06;9.07;;;7.95;;
24813;SDS011;12904;50.088;11.414;2023-04-15T03:40:32;8.65;;;7.75;;
24813;SDS011;12904;50.088;11.414;2023-04-15T03:42:58;8.27;;;7.50;;
24813;SDS011;12904;50.088;11.414;2023-04-15T03:45:24;10.00;;;9.10;;
24813;SDS011;12904;50.088;11.414;2023-04-15T03:47:50;10.18;;;9.27;;
24813;SDS011;12904;50.088;11.414;2023-04-15T03:50:15;9.32;;;8.43;;
24813;SDS011;12904;50.088;11.414;2023-04-15T03:52:41;9.38;;;8.48;;
24813;SDS011;12904;50.088;11.414;2023-04-15T03:55:07;9.50;;;8.57;;
24813;SDS011;12904;50.088;11.414;2023-04-15T03:57:33;10.65;;;8.38;;
24813;SDS011;12904;50.088;11.414;2023-04-15T04:00:02;9.98;;;8.70;;
24813;SDS011;12904;50.088;11.414;2023-04-15T04:02:29;10.32;;;9.00;;
24813;SDS011;12904;50.088;11.414;2023-04-15T04:04:55;9.73;;;8.80;;
24813;SDS011;12904;50.088;11.414;2023-04-15T04:07:22;10.35;;;9.32;;
24813;SDS011;12904;50.088;11.414;2023-04-15T04:09:48;10.45;;;9.55;;
24813;SDS011;12904;50.088;11.414;2023-04-15T04:12:14;10.63;;;8.75;;
24813;SDS011;12904;50.088;11.414;2023-04-15T04:14:39;9.32;;;8.43;;
24813;SDS011;12904;50.088;11.414;2023-04-15T04:17:05;10.75;;;9.15;;
24813;SDS011;12904;50.088;11.414;2023-04-15T04:19:31;10.15;;;9.15;;
24813;SDS011;12904;50.088;11.414;2023-04-15T04:21:56;10.45;;;9.55;;
24813;SDS011;12904;50.088;11.414;2023-04-15T04:24:22;11.02;;;9.90;;
24813;SDS011;12904;50.088;11.414;2023-04-15T04:26:48;13.65;;;11.75;;
24813;SDS011;12904;50.088;11.414;2023-04-15T04:29:13;11.77;;;10.70;;
24813;SDS011;12904;50.088;11.414;2023-04-15T04:31:39;12.25;;;11.02;;
24813;SDS011;12904;50.088;11.414;2023-04-15T04:34:05;17.42;;;13.35;;
24813;SDS011;12904;50.088;11.414;2023-04-15T04:36:30;12.65;;;11.45;;
24813;SDS011;12904;50.088;11.414;2023-04-15T04:38:56;12.45;;;11.35;;
24813;SDS011;12904;50.088;11.414;2023-04-15T04:41:21;13.02;;;11.80;;
24813;SDS011;12904;50.088;11.414;2023-04-15T04:43:47;13.15;;;11.90;;
24813;SDS011;12904;50.088;11.414;2023-04-15T04:46:13;13.77;;;12.40;;
24813;SDS011;12904;50.088;11.414;2023-04-15T04:48:38;12.43;;;11.23;;
24813;SDS011;12904;50.088;11.414;2023-04-15T04:51:05;13.57;;;12.20;;
24813;SDS011;12904;50.088;11.414;2023-04-15T04:53:31;13.18;;;12.00;;
24813;SDS011;12904;50.088;11.414;2023-04-15T04:55:57;13.45;;;11.52;;
24813;SDS011;12904;50.088;11.414;2023-04-15T04:58:23;13.95;;;12.55;;
24813;SDS011;12904;50.088;11.414;2023-04-15T05:00:48;15.02;;;11.90;;
24813;SDS011;12904;50.088;11.414;2023-04-15T05:03:14;14.77;;;12.18;;
24813;SDS011;12904;50.088;11.414;2023-04-15T05:05:40;14.60;;;12.15;;
24813;SDS011;12904;50.088;11.414;2023-04-15T05:08:05;13.35;;;12.05;;
24813;SDS011;12904;50.088;11.414;2023-04-15T05:10:31;11.65;;;10.45;;
24813;SDS011;12904;50.088;11.414;2023-04-15T05:12:57;11.65;;;10.55;;
24813;SDS011;12904;50.088;11.414;2023-04-15T05:15:23;16.08;;;11.98;;
24813;SDS011;12904;50.088;11.414;2023-04-15T05:17:49;13.38;;;11.60;;
24813;SDS011;12904;50.088;11.414;2023-04-15T05:20:15;13.73;;;12.43;;
24813;SDS011;12904;50.088;11.414;2023-04-15T05:22:41;12.80;;;11.52;;
24813;SDS011;12904;50.088;11.414;2023-04-15T05:25:06;13.00;;;11.70;;
24813;SDS011;12904;50.088;11.414;2023-04-15T05:27:32;13.35;;;11.95;;
24813;SDS011;12904;50.088;11.414;2023-04-15T05:29:58;14.98;;;13.05;;
24813;SDS011;12904;50.088;11.414;2023-04-15T05:32:24;13.32;;;11.88;;
24813;SDS011;12904;50.088;11.414;2023-04-15T05:34:50;13.52;;;12.25;;
24813;SDS011;12904;50.088;11.414;2023-04-15T05:37:16;13.65;;;12.25;;
24813;SDS011;12904;50.088;11.414;2023-04-15T05:39:41;15.23;;;13.82;;
24813;SDS011;12904;50.088;11.414;2023-04-15T05:42:08;12.35;;;11.15;;
24813;SDS011;12904;50.088;11.414;2023-04-15T05:44:34;14.07;;;12.77;;
24813;SDS011;12904;50.088;11.414;2023-04-15T05:46:59;13.85;;;12.55;;
24813;SDS011;12904;50.088;11.414;2023-04-15T05:49:25;14.98;;;13.48;;
24813;SDS011;12904;50.088;11.414;2023-04-15T05:51:51;12.95;;;11.85;;
24813;SDS011;12904;50.088;11.414;2023-04-15T05:54:17;13.52;;;12.13;;
24813;SDS011;12904;50.088;11.414;2023-04-15T05:56:42;12.90;;;11.60;;
24813;SDS011;12904;50.088;11.414;2023-04-15T05:59:08;14.15;;;11.85;;
24813;SDS011;12904;50.088;11.414;2023-04-15T06:01:34;13.52;;;12.25;;
24813;SDS011;12904;50.088;11.414;2023-04-15T06:03:59;14.20;;;13.00;;
24813;SDS011;12904;50.088;11.414;2023-04-15T06:06:25;16.55;;;13.30;;
24813;SDS011;12904;50.088;11.414;2023-04-15T06:08:51;13.30;;;11.80;;
24813;SDS011;12904;50.088;11.414;2023-04-15T06:11:17;14.90;;;12.48;;
24813;SDS011;12904;50.088;11.414;2023-04-15T06:13:47;15.93;;;12.95;;
24813;SDS011;12904;50.088;11.414;2023-04-15T06:16:12;13.98;;;12.57;;
24813;SDS011;12904;50.088;11.414;2023-04-15T06:18:38;25.50;;;12.48;;
24813;SDS011;12904;50.088;11.414;2023-04-15T06:21:04;14.00;;;12.60;;
24813;SDS011;12904;50.088;11.414;2023-04-15T06:23:29;15.98;;;12.55;;
24813;SDS011;12904;50.088;11.414;2023-04-15T06:25:58;14.63;;;13.18;;
24813;SDS011;12904;50.088;11.414;2023-04-15T06:28:23;14.32;;;12.93;;
24813;SDS011;12904;50.088;11.414;2023-04-15T06:30:49;14.18;;;12.82;;
24813;SDS011;12904;50.088;11.414;2023-04-15T06:33:15;15.32;;;12.52;;
24813;SDS011;12904;50.088;11.414;2023-04-15T06:35:40;25.17;;;16.42;;
24813;SDS011;12904;50.088;11.414;2023-04-15T06:38:06;26.20;;;15.77;;
24813;SDS011;12904;50.088;11.414;2023-04-15T06:40:31;14.93;;;13.27;;
24813;SDS011;12904;50.088;11.414;2023-04-15T06:42:58;20.00;;;15.27;;
24813;SDS011;12904;50.088;11.414;2023-04-15T06:45:23;14.25;;;12.55;;
24813;SDS011;12904;50.088;11.414;2023-04-15T06:47:49;15.60;;;14.10;;
24813;SDS011;12904;50.088;11.414;2023-04-15T06:50:15;16.55;;;14.68;;
24813;SDS011;12904;50.088;11.414;2023-04-15T06:52:40;15.25;;;13.75;;
24813;SDS011;12904;50.088;11.414;2023-04-15T06:55:06;14.02;;;12.63;;
24813;SDS011;12904;50.088;11.414;2023-04-15T06:57:32;16.65;;;13.18;;
24813;SDS011;12904;50.088;11.414;2023-04-15T06:59:58;14.80;;;12.65;;
24813;SDS011;12904;50.088;11.414;2023-04-15T07:02:24;16.15;;;13.95;;
24813;SDS011;12904;50.088;11.414;2023-04-15T07:04:50;16.80;;;12.38;;
24813;SDS011;12904;50.088;11.414;2023-04-15T07:07:15;14.82;;;12.38;;
24813;SDS011;12904;50.088;11.414;2023-04-15T07:09:41;15.25;;;11.60;;
24813;SDS011;12904;50.088;11.414;2023-04-15T07:12:07;12.18;;;11.02;;
24813;SDS011;12904;50.088;11.414;2023-04-15T07:14:33;13.38;;;11.25;;
24813;SDS011;12904;50.088;11.414;2023-04-15T07:16:58;13.23;;;11.93;;
24813;SDS011;12904;50.088;11.414;2023-04-15T07:19:24;12.38;;;11.23;;
24813;SDS011;12904;50.088;11.414;2023-04-15T07:21:50;14.88;;;11.48;;
24813;SDS011;12904;50.088;11.414;2023-04-15T07:24:17;13.63;;;11.63;;
24813;SDS011;12904;50.088;11.414;2023-04-15T07:26:44;12.98;;;11.05;;
24813;SDS011;12904;50.088;11.414;2023-04-15T07:29:09;13.15;;;10.35;;
24813;SDS011;12904;50.088;11.414;2023-04-15T07:31:35;11.25;;;10.18;;
24813;SDS011;12904;50.088;11.414;2023-04-15T07:34:02;16.63;;;14.82;;
24813;SDS011;12904;50.088;11.414;2023-04-15T07:36:29;18.98;;;16.02;;
24813;SDS011;12904;50.088;11.414;2023-04-15T07:38:55;25.65;;;19.00;;
24813;SDS011;12904;50.088;11.414;2023-04-15T07:41:22;17.77;;;15.90;;
24813;SDS011;12904;50.088;11.414;2023-04-15T07:43:48;21.17;;;15.25;;
24813;SDS011;12904;50.088;11.414;2023-04-15T07:46:14;13.10;;;11.18;;
24813;SDS011;12904;50.088;11.414;2023-04-15T07:48:40;14.70;;;11.95;;
24813;SDS011;12904;50.088;11.414;2023-04-15T07:51:06;13.02;;;11.82;;
24813;SDS011;12904;50.088;11.414;2023-04-15T07:53:32;14.25;;;12.85;;
24813;SDS011;12904;50.088;11.414;2023-04-15T07:55:58;14.05;;;12.65;;
24813;SDS011;12904;50.088;11.414;2023-04-15T07:58:23;15.63;;;13.30;;
24813;SDS011;12904;50.088;11.414;2023-04-15T08:00:49;11.95;;;10.60;;
24813;SDS011;12904;50.088;11.414;2023-04-15T08:03:15;13.45;;;12.07;;
24813;SDS011;12904;50.088;11.414;2023-04-15T08:05:41;14.30;;;12.77;;
24813;SDS011;12904;50.088;11.414;2023-04-15T08:08:07;14.23;;;12.82;;
24813;SDS011;12904;50.088;11.414;2023-04-15T08:10:32;14.13;;;12.57;;
24813;SDS011;12904;50.088;11.414;2023-04-15T08:12:58;16.80;;;12.73;;
24813;SDS011;12904;50.088;11.414;2023-04-15T08:15:25;13.88;;;12.57;;
24813;SDS011;12904;50.088;11.414;2023-04-15T08:17:51;16.00;;;14.40;;
24813;SDS011;12904;50.088;11.414;2023-04-15T08:20:16;18.02;;;14.45;;
24813;SDS011;12904;50.088;11.414;2023-04-15T08:22:42;17.80;;;15.90;;
24813;SDS011;12904;50.088;11.414;2023-04-15T08:25:08;16.35;;;14.75;;
24813;SDS011;12904;50.088;11.414;2023-04-15T08:27:34;14.73;;;13.23;;
24813;SDS011;12904;50.088;11.414;2023-04-15T08:30:00;16.98;;;13.57;;
24813;SDS011;12904;50.088;11.414;2023-04-15T08:32:26;16.85;;;15.05;;
24813;SDS011;12904;50.088;11.414;2023-04-15T08:34:51;17.92;;;15.95;;
24813;SDS011;12904;50.088;11.414;2023-04-15T08:37:17;17.75;;;14.70;;
24813;SDS011;12904;50.088;11.414;2023-04-15T08:39:43;21.00;;;17.50;;
24813;SDS011;12904;50.088;11.414;2023-04-15T08:42:15;20.85;;;18.52;;
24813;SDS011;12904;50.088;11.414;2023-04-15T08:44:41;21.98;;;17.42;;
24813;SDS011;12904;50.088;11.414;2023-04-15T08:47:08;17.23;;;15.38;;
24813;SDS011;12904;50.088;11.414;2023-04-15T08:49:39;17.95;;;15.55;;
24813;SDS011;12904;50.088;11.414;2023-04-15T08:52:08;21.63;;;17.10;;
24813;SDS011;12904;50.088;11.414;2023-04-15T08:54:34;23.75;;;17.27;;
24813;SDS011;12904;50.088;11.414;2023-04-15T08:57:00;19.40;;;14.73;;
24813;SDS011;12904;50.088;11.414;2023-04-15T08:59:29;19.15;;;13.82;;
24813;SDS011;12904;50.088;11.414;2023-04-15T09:01:56;21.60;;;14.82;;
24813;SDS011;12904;50.088;11.414;2023-04-15T09:04:22;15.30;;;13.48;;
24813;SDS011;12904;50.088;11.414;2023-04-15T09:06:48;17.88;;;14.27;;
24813;SDS011;12904;50.088;11.414;2023-04-15T09:09:13;17.02;;;15.23;;
24813;SDS011;12904;50.088;11.414;2023-04-15T09:11:39;16.10;;;14.43;;
24813;SDS011;12904;50.088;11.414;2023-04-15T09:14:05;16.30;;;14.80;;
24813;SDS011;12904;50.088;11.414;2023-04-15T09:16:31;17.58;;;15.77;;
24813;SDS011;12904;50.088;11.414;2023-04-15T09:19:21;15.55;;;13.80;;
24813;SDS011;12904;50.088;11.414;2023-04-15T09:21:48;18.83;;;15.02;;
24813;SDS011;12904;50.088;11.414;2023-04-15T09:24:15;17.40;;;14.80;;
24813;SDS011;12904;50.088;11.414;2023-04-15T09:26:41;15.02;;;13.52;;
24813;SDS011;12904;50.088;11.414;2023-04-15T09:29:08;16.20;;;14.50;;
24813;SDS011;12904;50.088;11.414;2023-04-15T09:31:37;15.73;;;14.13;;
24813;SDS011;12904;50.088;11.414;2023-04-15T09:34:03;16.00;;;14.27;;
24813;SDS011;12904;50.088;11.414;2023-04-15T09:36:29;16.60;;;14.98;;
24813;SDS011;12904;50.088;11.414;2023-04-15T09:39:10;15.38;;;13.88;;
24813;SDS011;12904;50.088;11.414;2023-04-15T09:41:36;18.15;;;16.33;;
24813;SDS011;12904;50.088;11.414;2023-04-15T09:44:02;15.30;;;13.90;;
24813;SDS011;12904;50.088;11.414;2023-04-15T09:46:50;16.13;;;14.27;;
24813;SDS011;12904;50.088;11.414;2023-04-15T09:49:14;13.70;;;12.38;;
24813;SDS011;12904;50.088;11.414;2023-04-15T09:51:41;12.68;;;11.57;;
24813;SDS011;12904;50.088;11.414;2023-04-15T09:54:08;12.60;;;10.98;;
24813;SDS011;12904;50.088;11.414;2023-04-15T09:56:34;12.10;;;10.98;;
24813;SDS011;12904;50.088;11.414;2023-04-15T09:59:02;11.15;;;10.10;;
24813;SDS011;12904;50.088;11.414;2023-04-15T10:01:29;10.50;;;9.55;;
24813;SDS011;12904;50.088;11.414;2023-04-15T10:03:55;10.55;;;9.63;;
24813;SDS011;12904;50.088;11.414;2023-04-15T10:06:22;9.75;;;8.85;;
24813;SDS011;12904;50.088;11.414;2023-04-15T10:08:50;9.65;;;8.70;;
24813;SDS011;12904;50.088;11.414;2023-04-15T10:11:17;10.15;;;9.18;;
24813;SDS011;12904;50.088;11.414;2023-04-15T10:13:44;9.02;;;8.15;;
24813;SDS011;12904;50.088;11.414;2023-04-15T10:16:12;8.80;;;8.00;;
24813;SDS011;12904;50.088;11.414;2023-04-15T10:18:41;8.85;;;8.13;;
24813;SDS011;12904;50.088;11.414;2023-04-15T10:21:09;7.60;;;7.00;;
24813;SDS011;12904;50.088;11.414;2023-04-15T10:23:35;8.10;;;7.40;;
24813;SDS011;12904;50.088;11.414;2023-04-15T10:26:03;7.93;;;7.22;;
24813;SDS011;12904;50.088;11.414;2023-04-15T10:28:30;9.30;;;8.50;;
24813;SDS011;12904;50.088;11.414;2023-04-15T10:30:56;8.82;;;8.05;;
24813;SDS011;12904;50.088;11.414;2023-04-15T10:33:23;8.45;;;7.75;;
24813;SDS011;12904;50.088;11.414;2023-04-15T10:35:50;8.25;;;7.45;;
24813;SDS011;12904;50.088;11.414;2023-04-15T10:38:30;8.20;;;7.60;;
24813;SDS011;12904;50.088;11.414;2023-04-15T10:43:38;9.43;;;8.65;;
24813;SDS011;12904;50.088;11.414;2023-04-15T10:46:09;9.23;;;8.32;;
24813;SDS011;12904;50.088;11.414;2023-04-15T10:48:35;8.88;;;8.13;;
24813;SDS011;12904;50.088;11.414;2023-04-15T10:51:00;8.95;;;7.80;;
24813;SDS011;12904;50.088;11.414;2023-04-15T10:53:27;9.30;;;8.50;;
24813;SDS011;12904;50.088;11.414;2023-04-15T10:55:55;8.88;;;8.18;;
24813;SDS011;12904;50.088;11.414;2023-04-15T10:58:22;8.32;;;7.57;;
24813;SDS011;12904;50.088;11.414;2023-04-15T11:00:50;9.00;;;8.20;;
24813;SDS011;12904;50.088;11.414;2023-04-15T11:03:32;11.85;;;10.75;;
24813;SDS011;12904;50.088;11.414;2023-04-15T11:06:05;8.55;;;7.85;;
24813;SDS011;12904;50.088;11.414;2023-04-15T11:12:09;8.93;;;7.30;;
24813;SDS011;12904;50.088;11.414;2023-04-15T11:14:28;7.43;;;6.82;;
24813;SDS011;12904;50.088;11.414;2023-04-15T11:16:54;6.60;;;6.00;;
24813;SDS011;12904;50.088;11.414;2023-04-15T11:19:19;6.40;;;5.70;;
24813;SDS011;12904;50.088;11.414;2023-04-15T11:21:45;6.43;;;5.88;;
24813;SDS011;12904;50.088;11.414;2023-04-15T11:24:19;6.72;;;6.22;;
24813;SDS011;12904;50.088;11.414;2023-04-15T11:26:55;5.72;;;5.22;;
24813;SDS011;12904;50.088;11.414;2023-04-15T11:29:27;5.93;;;5.32;;
24813;SDS011;12904;50.088;11.414;2023-04-15T11:32:07;4.97;;;4.57;;
24813;SDS011;12904;50.088;11.414;2023-04-15T11:34:33;5.93;;;5.05;;
24813;SDS011;12904;50.088;11.414;2023-04-15T11:37:02;5.57;;;5.07;;
24813;SDS011;12904;50.088;11.414;2023-04-15T11:39:29;5.03;;;4.63;;
24813;SDS011;12904;50.088;11.414;2023-04-15T11:41:54;4.85;;;4.45;;
24813;SDS011;12904;50.088;11.414;2023-04-15T11:44:20;4.60;;;4.18;;
24813;SDS011;12904;50.088;11.414;2023-04-15T11:46:46;5.38;;;4.97;;
24813;SDS011;12904;50.088;11.414;2023-04-15T11:49:24;4.82;;;4.43;;
24813;SDS011;12904;50.088;11.414;2023-04-15T11:51:50;5.28;;;4.78;;
24813;SDS011;12904;50.088;11.414;2023-04-15T11:54:19;4.88;;;4.47;;
24813;SDS011;12904;50.088;11.414;2023-04-15T11:56:49;4.72;;;4.32;;
24813;SDS011;12904;50.088;11.414;2023-04-15T11:59:16;4.97;;;4.57;;
24813;SDS011;12904;50.088;11.414;2023-04-15T12:01:41;4.97;;;4.57;;
24813;SDS011;12904;50.088;11.414;2023-04-15T12:04:26;4.00;;;3.70;;
24813;SDS011;12904;50.088;11.414;2023-04-15T12:06:51;4.40;;;4.05;;
24813;SDS011;12904;50.088;11.414;2023-04-15T12:09:17;5.28;;;4.78;;
24813;SDS011;12904;50.088;11.414;2023-04-15T12:11:50;4.68;;;4.28;;
24813;SDS011;12904;50.088;11.414;2023-04-15T12:14:26;4.85;;;4.40;;
24813;SDS011;12904;50.088;11.414;2023-04-15T12:16:54;6.13;;;5.60;;
24813;SDS011;12904;50.088;11.414;2023-04-15T12:19:33;5.10;;;4.70;;
24813;SDS011;12904;50.088;11.414;2023-04-15T12:22:02;5.03;;;4.63;;
24813;SDS011;12904;50.088;11.414;2023-04-15T12:24:33;8.20;;;7.57;;
24813;SDS011;12904;50.088;11.414;2023-04-15T12:27:03;4.85;;;4.45;;
24813;SDS011;12904;50.088;11.414;2023-04-15T12:29:31;5.15;;;4.70;;
24813;SDS011;12904;50.088;11.414;2023-04-15T12:32:03;5.70;;;5.20;;
24813;SDS011;12904;50.088;11.414;2023-04-15T12:34:31;5.80;;;5.32;;
24813;SDS011;12904;50.088;11.414;2023-04-15T12:37:01;7.65;;;7.05;;
24813;SDS011;12904;50.088;11.414;2023-04-15T12:39:29;8.02;;;7.43;;
24813;SDS011;12904;50.088;11.414;2023-04-15T12:41:56;4.20;;;3.80;;
24813;SDS011;12904;50.088;11.414;2023-04-15T12:44:24;8.48;;;7.10;;
24813;SDS011;12904;50.088;11.414;2023-04-15T12:46:50;6.18;;;5.57;;
24813;SDS011;12904;50.088;11.414;2023-04-15T12:49:17;6.32;;;5.82;;
24813;SDS011;12904;50.088;11.414;2023-04-15T12:51:49;6.55;;;6.03;;
24813;SDS011;12904;50.088;11.414;2023-04-15T12:54:17;8.00;;;7.25;;
24813;SDS011;12904;50.088;11.414;2023-04-15T12:56:46;10.85;;;9.80;;
24813;SDS011;12904;50.088;11.414;2023-04-15T12:59:14;7.35;;;6.82;;
24813;SDS011;12904;50.088;11.414;2023-04-15T13:01:40;4.95;;;4.55;;
24813;SDS011;12904;50.088;11.414;2023-04-15T13:04:06;5.32;;;4.82;;
24813;SDS011;12904;50.088;11.414;2023-04-15T13:06:32;7.05;;;6.47;;
24813;SDS011;12904;50.088;11.414;2023-04-15T13:08:58;5.18;;;4.78;;
24813;SDS011;12904;50.088;11.414;2023-04-15T13:11:25;5.35;;;4.75;;
24813;SDS011;12904;50.088;11.414;2023-04-15T13:13:51;6.40;;;5.90;;
24813;SDS011;12904;50.088;11.414;2023-04-15T13:16:17;14.30;;;13.27;;
24813;SDS011;12904;50.088;11.414;2023-04-15T13:18:43;6.07;;;5.57;;
24813;SDS011;12904;50.088;11.414;2023-04-15T13:21:11;5.55;;;4.95;;
24813;SDS011;12904;50.088;11.414;2023-04-15T13:23:37;8.55;;;7.88;;
24813;SDS011;12904;50.088;11.414;2023-04-15T13:26:03;8.25;;;7.65;;
24813;SDS011;12904;50.088;11.414;2023-04-15T13:28:28;18.58;;;16.98;;
24813;SDS011;12904;50.088;11.414;2023-04-15T13:30:54;6.00;;;5.55;;
24813;SDS011;12904;50.088;11.414;2023-04-15T13:33:20;4.90;;;4.45;;
24813;SDS011;12904;50.088;11.414;2023-04-15T13:35:45;5.13;;;4.72;;
24813;SDS011;12904;50.088;11.414;2023-04-15T13:38:11;5.25;;;4.80;;
24813;SDS011;12904;50.088;11.414;2023-04-15T13:40:36;7.00;;;6.50;;
24813;SDS011;12904;50.088;11.414;2023-04-15T13:43:02;5.65;;;5.15;;
24813;SDS011;12904;50.088;11.414;2023-04-15T13:45:28;6.53;;;6.03;;
24813;SDS011;12904;50.088;11.414;2023-04-15T13:47:54;5.40;;;4.90;;
24813;SDS011;12904;50.088;11.414;2023-04-15T13:50:21;4.85;;;4.38;;
24813;SDS011;12904;50.088;11.414;2023-04-15T13:52:46;5.15;;;4.68;;
24813;SDS011;12904;50.088;11.414;2023-04-15T13:55:12;5.45;;;4.95;;
24813;SDS011;12904;50.088;11.414;2023-04-15T13:57:38;4.53;;;4.13;;
24813;SDS011;12904;50.088;11.414;2023-04-15T14:00:04;6.03;;;5.53;;
24813;SDS011;12904;50.088;11.414;2023-04-15T14:02:30;5.80;;;5.30;;
24813;SDS011;12904;50.088;11.414;2023-04-15T14:04:55;12.60;;;11.60;;
24813;SDS011;12904;50.088;11.414;2023-04-15T14:07:21;30.15;;;28.08;;
24813;SDS011;12904;50.088;11.414;2023-04-15T14:09:47;11.52;;;10.73;;
24813;SDS011;12904;50.088;11.414;2023-04-15T14:12:13;6.55;;;5.95;;
24813;SDS011;12904;50.088;11.414;2023-04-15T14:14:38;8.77;;;8.10;;
24813;SDS011;12904;50.088;11.414;2023-04-15T14:17:04;18.92;;;17.75;;
24813;SDS011;12904;50.088;11.414;2023-04-15T14:19:31;6.63;;;6.13;;
24813;SDS011;12904;50.088;11.414;2023-04-15T14:21:57;7.55;;;6.93;;
24813;SDS011;12904;50.088;11.414;2023-04-15T14:24:23;12.82;;;11.82;;
24813;SDS011;12904;50.088;11.414;2023-04-15T14:26:49;14.07;;;12.77;;